sensor_id;sensor_type;location;lat;lon;timestamp;P1;durP1;ratioP1;P2;durP2;ratioP2
58615;SDS011;44385;51.992;4.206;2023-04-25T00:01:03;14.98;;;4.10;;
58615;SDS011;44385;51.992;4.206;2023-04-25T00:03:30;12.85;;;4.38;;
58615;SDS011;44385;51.992;4.206;2023-04-25T00:05:57;9.93;;;3.88;;
58615;SDS011;44385;51.992;4.206;2023-04-25T00:08:27;15.07;;;4.63;;
58615;SDS011;44385;51.992;4.206;2023-04-25T00:10:57;12.38;;;3.97;;
58615;SDS011;44385;51.992;4.206;2023-04-25T00:13:23;14.80;;;3.80;;
58615;SDS011;44385;51.992;4.206;2023-04-25T00:15:50;14.63;;;4.07;;
58615;SDS011;44385;51.992;4.206;2023-04-25T00:18:18;18.88;;;4.32;;
58615;SDS011;44385;51.992;4.206;2023-04-25T00:20:44;16.80;;;4.78;;
58615;SDS011;44385;51.992;4.206;2023-04-25T00:23:11;18.50;;;4.95;;
58615;SDS011;44385;51.992;4.206;2023-04-25T00:25:42;14.38;;;4.70;;
58615;SDS011;44385;51.992;4.206;2023-04-25T00:28:10;18.02;;;5.40;;
58615;SDS011;44385;51.992;4.206;2023-04-25T00:30:37;21.17;;;5.38;;
58615;SDS011;44385;51.992;4.206;2023-04-25T00:33:04;14.85;;;4.22;;
58615;SDS011;44385;51.992;4.206;2023-04-25T00:35:31;14.65;;;5.60;;
58615;SDS011;44385;51.992;4.206;2023-04-25T00:37:57;17.10;;;5.00;;
58615;SDS011;44385;51.992;4.206;2023-04-25T00:40:24;17.88;;;5.32;;
58615;SDS011;44385;51.992;4.206;2023-04-25T00:42:50;17.85;;;4.55;;
58615;SDS011;44385;51.992;4.206;2023-04-25T00:45:19;18.00;;;4.82;;
58615;SDS011;44385;51.992;4.206;2023-04-25T00:47:45;19.58;;;5.07;;
58615;SDS011;44385;51.992;4.206;2023-04-25T00:50:12;19.25;;;5.13;;
58615;SDS011;44385;51.992;4.206;2023-04-25T00:52:40;15.40;;;4.45;;
58615;SDS011;44385;51.992;4.206;2023-04-25T00:55:07;19.63;;;5.10;;
58615;SDS011;44385;51.992;4.206;2023-04-25T00:57:33;17.88;;;5.07;;
58615;SDS011;44385;51.992;4.206;2023-04-25T01:00:00;13.88;;;4.47;;
58615;SDS011;44385;51.992;4.206;2023-04-25T01:02:28;13.23;;;4.05;;
58615;SDS011;44385;51.992;4.206;2023-04-25T01:04:55;14.20;;;3.40;;
58615;SDS011;44385;51.992;4.206;2023-04-25T01:07:22;14.77;;;4.63;;
58615;SDS011;44385;51.992;4.206;2023-04-25T01:09:51;16.20;;;4.22;;
58615;SDS011;44385;51.992;4.206;2023-04-25T01:12:17;19.17;;;4.53;;
58615;SDS011;44385;51.992;4.206;2023-04-25T01:14:44;10.02;;;3.85;;
58615;SDS011;44385;51.992;4.206;2023-04-25T01:17:11;14.88;;;3.78;;
58615;SDS011;44385;51.992;4.206;2023-04-25T01:19:39;10.05;;;4.25;;
58615;SDS011;44385;51.992;4.206;2023-04-25T01:22:07;20.00;;;4.13;;
58615;SDS011;44385;51.992;4.206;2023-04-25T01:24:35;17.00;;;3.97;;
58615;SDS011;44385;51.992;4.206;2023-04-25T01:27:01;16.38;;;4.72;;
58615;SDS011;44385;51.992;4.206;2023-04-25T01:29:31;13.93;;;3.90;;
58615;SDS011;44385;51.992;4.206;2023-04-25T01:31:58;9.43;;;3.17;;
58615;SDS011;44385;51.992;4.206;2023-04-25T01:34:25;12.27;;;3.60;;
58615;SDS011;44385;51.992;4.206;2023-04-25T01:36:52;8.73;;;3.17;;
58615;SDS011;44385;51.992;4.206;2023-04-25T01:39:20;13.70;;;4.03;;
58615;SDS011;44385;51.992;4.206;2023-04-25T01:41:47;9.18;;;3.30;;
58615;SDS011;44385;51.992;4.206;2023-04-25T01:44:14;13.02;;;3.55;;
58615;SDS011;44385;51.992;4.206;2023-04-25T01:46:41;11.40;;;3.15;;
58615;SDS011;44385;51.992;4.206;2023-04-25T01:49:07;11.25;;;3.33;;
58615;SDS011;44385;51.992;4.206;2023-04-25T01:51:34;13.18;;;3.60;;
58615;SDS011;44385;51.992;4.206;2023-04-25T01:54:00;11.85;;;4.13;;
58615;SDS011;44385;51.992;4.206;2023-04-25T01:56:31;12.38;;;3.67;;
58615;SDS011;44385;51.992;4.206;2023-04-25T01:58:57;14.55;;;3.95;;
58615;SDS011;44385;51.992;4.206;2023-04-25T02:01:23;13.35;;;3.72;;
58615;SDS011;44385;51.992;4.206;2023-04-25T02:03:50;11.43;;;3.85;;
58615;SDS011;44385;51.992;4.206;2023-04-25T02:06:16;11.85;;;3.97;;
58615;SDS011;44385;51.992;4.206;2023-04-25T02:08:43;12.05;;;4.32;;
58615;SDS011;44385;51.992;4.206;2023-04-25T02:11:09;10.68;;;4.10;;
58615;SDS011;44385;51.992;4.206;2023-04-25T02:13:37;13.23;;;3.75;;
58615;SDS011;44385;51.992;4.206;2023-04-25T02:16:03;14.60;;;3.92;;
58615;SDS011;44385;51.992;4.206;2023-04-25T02:18:30;14.65;;;3.85;;
58615;SDS011;44385;51.992;4.206;2023-04-25T02:20:58;15.25;;;4.35;;
58615;SDS011;44385;51.992;4.206;2023-04-25T02:23:24;13.85;;;3.85;;
58615;SDS011;44385;51.992;4.206;2023-04-25T02:25:51;15.63;;;3.83;;
58615;SDS011;44385;51.992;4.206;2023-04-25T02:28:18;20.95;;;4.05;;
58615;SDS011;44385;51.992;4.206;2023-04-25T02:30:45;12.38;;;4.18;;
58615;SDS011;44385;51.992;4.206;2023-04-25T02:33:12;11.32;;;3.90;;
58615;SDS011;44385;51.992;4.206;2023-04-25T02:38:08;17.17;;;4.20;;
58615;SDS011;44385;51.992;4.206;2023-04-25T02:40:34;11.35;;;3.95;;
58615;SDS011;44385;51.992;4.206;2023-04-25T02:43:01;12.98;;;3.65;;
58615;SDS011;44385;51.992;4.206;2023-04-25T02:45:27;12.93;;;3.20;;
58615;SDS011;44385;51.992;4.206;2023-04-25T02:47:55;12.75;;;3.63;;
58615;SDS011;44385;51.992;4.206;2023-04-25T02:50:24;7.82;;;2.70;;
58615;SDS011;44385;51.992;4.206;2023-04-25T02:52:51;16.50;;;4.05;;
58615;SDS011;44385;51.992;4.206;2023-04-25T02:55:17;12.50;;;3.05;;
58615;SDS011;44385;51.992;4.206;2023-04-25T02:57:43;13.27;;;3.30;;
58615;SDS011;44385;51.992;4.206;2023-04-25T03:00:10;12.43;;;3.03;;
58615;SDS011;44385;51.992;4.206;2023-04-25T03:02:39;17.38;;;3.30;;
58615;SDS011;44385;51.992;4.206;2023-04-25T03:05:07;12.77;;;3.55;;
58615;SDS011;44385;51.992;4.206;2023-04-25T03:07:34;13.05;;;2.95;;
58615;SDS011;44385;51.992;4.206;2023-04-25T03:10:00;10.90;;;3.20;;
58615;SDS011;44385;51.992;4.206;2023-04-25T03:12:27;9.57;;;2.55;;
58615;SDS011;44385;51.992;4.206;2023-04-25T03:14:54;13.70;;;3.17;;
58615;SDS011;44385;51.992;4.206;2023-04-25T03:17:20;8.90;;;3.17;;
58615;SDS011;44385;51.992;4.206;2023-04-25T03:19:47;8.50;;;2.75;;
58615;SDS011;44385;51.992;4.206;2023-04-25T03:22:15;6.82;;;2.10;;
58615;SDS011;44385;51.992;4.206;2023-04-25T03:24:42;9.77;;;2.70;;
58615;SDS011;44385;51.992;4.206;2023-04-25T03:27:08;13.80;;;2.90;;
58615;SDS011;44385;51.992;4.206;2023-04-25T03:29:35;11.63;;;2.83;;
58615;SDS011;44385;51.992;4.206;2023-04-25T03:32:01;9.32;;;2.53;;
58615;SDS011;44385;51.992;4.206;2023-04-25T03:34:27;12.13;;;3.30;;
58615;SDS011;44385;51.992;4.206;2023-04-25T03:36:54;12.73;;;3.10;;
58615;SDS011;44385;51.992;4.206;2023-04-25T03:39:22;10.98;;;2.95;;
58615;SDS011;44385;51.992;4.206;2023-04-25T03:41:52;5.60;;;2.53;;
58615;SDS011;44385;51.992;4.206;2023-04-25T03:44:18;10.68;;;3.22;;
58615;SDS011;44385;51.992;4.206;2023-04-25T03:46:44;9.00;;;2.85;;
58615;SDS011;44385;51.992;4.206;2023-04-25T03:49:14;7.70;;;2.80;;
58615;SDS011;44385;51.992;4.206;2023-04-25T03:51:40;13.38;;;3.10;;
58615;SDS011;44385;51.992;4.206;2023-04-25T03:54:07;11.18;;;4.10;;
58615;SDS011;44385;51.992;4.206;2023-04-25T03:56:35;8.90;;;3.05;;
58615;SDS011;44385;51.992;4.206;2023-04-25T03:59:01;9.57;;;3.22;;
58615;SDS011;44385;51.992;4.206;2023-04-25T04:01:30;11.13;;;3.50;;
58615;SDS011;44385;51.992;4.206;2023-04-25T04:03:57;9.60;;;3.30;;
58615;SDS011;44385;51.992;4.206;2023-04-25T04:06:24;10.75;;;3.03;;
58615;SDS011;44385;51.992;4.206;2023-04-25T04:08:50;10.38;;;3.42;;
58615;SDS011;44385;51.992;4.206;2023-04-25T04:11:17;11.85;;;3.00;;
58615;SDS011;44385;51.992;4.206;2023-04-25T04:13:45;10.70;;;3.75;;
58615;SDS011;44385;51.992;4.206;2023-04-25T04:16:14;10.30;;;3.65;;
58615;SDS011;44385;51.992;4.206;2023-04-25T04:18:40;6.53;;;2.60;;
58615;SDS011;44385;51.992;4.206;2023-04-25T04:21:07;7.28;;;3.08;;
58615;SDS011;44385;51.992;4.206;2023-04-25T04:23:33;12.00;;;3.08;;
58615;SDS011;44385;51.992;4.206;2023-04-25T04:26:00;9.90;;;2.80;;
58615;SDS011;44385;51.992;4.206;2023-04-25T04:28:27;12.05;;;2.72;;
58615;SDS011;44385;51.992;4.206;2023-04-25T04:30:56;7.43;;;2.80;;
58615;SDS011;44385;51.992;4.206;2023-04-25T04:33:23;16.60;;;3.45;;
58615;SDS011;44385;51.992;4.206;2023-04-25T04:35:50;11.30;;;3.13;;
58615;SDS011;44385;51.992;4.206;2023-04-25T04:38:17;11.57;;;3.17;;
58615;SDS011;44385;51.992;4.206;2023-04-25T04:40:43;13.50;;;3.10;;
58615;SDS011;44385;51.992;4.206;2023-04-25T04:43:10;11.75;;;3.08;;
58615;SDS011;44385;51.992;4.206;2023-04-25T04:45:37;11.40;;;2.80;;
58615;SDS011;44385;51.992;4.206;2023-04-25T04:48:06;14.57;;;3.17;;
58615;SDS011;44385;51.992;4.206;2023-04-25T04:50:33;17.05;;;4.22;;
58615;SDS011;44385;51.992;4.206;2023-04-25T04:53:01;15.02;;;3.28;;
58615;SDS011;44385;51.992;4.206;2023-04-25T04:55:27;16.67;;;4.50;;
58615;SDS011;44385;51.992;4.206;2023-04-25T04:57:54;10.73;;;3.17;;
58615;SDS011;44385;51.992;4.206;2023-04-25T05:00:21;15.88;;;3.67;;
58615;SDS011;44385;51.992;4.206;2023-04-25T05:02:47;17.55;;;3.33;;
58615;SDS011;44385;51.992;4.206;2023-04-25T05:05:15;10.05;;;3.45;;
58615;SDS011;44385;51.992;4.206;2023-04-25T05:07:42;12.43;;;3.00;;
58615;SDS011;44385;51.992;4.206;2023-04-25T05:10:08;9.43;;;2.83;;
58615;SDS011;44385;51.992;4.206;2023-04-25T05:12:35;11.48;;;2.95;;
58615;SDS011;44385;51.992;4.206;2023-04-25T05:15:02;13.52;;;2.72;;
58615;SDS011;44385;51.992;4.206;2023-04-25T05:17:28;9.95;;;2.78;;
58615;SDS011;44385;51.992;4.206;2023-04-25T05:19:55;8.30;;;2.40;;
58615;SDS011;44385;51.992;4.206;2023-04-25T05:22:23;7.63;;;2.92;;
58615;SDS011;44385;51.992;4.206;2023-04-25T05:24:50;9.25;;;2.10;;
58615;SDS011;44385;51.992;4.206;2023-04-25T05:27:17;7.88;;;2.40;;
58615;SDS011;44385;51.992;4.206;2023-04-25T05:29:43;10.00;;;2.10;;
58615;SDS011;44385;51.992;4.206;2023-04-25T05:32:10;7.72;;;2.30;;
58615;SDS011;44385;51.992;4.206;2023-04-25T05:34:37;7.82;;;2.65;;
58615;SDS011;44385;51.992;4.206;2023-04-25T05:37:03;8.13;;;2.35;;
58615;SDS011;44385;51.992;4.206;2023-04-25T05:39:31;6.70;;;2.05;;
58615;SDS011;44385;51.992;4.206;2023-04-25T05:41:58;8.20;;;2.28;;
58615;SDS011;44385;51.992;4.206;2023-04-25T05:44:24;6.40;;;2.22;;
58615;SDS011;44385;51.992;4.206;2023-04-25T05:46:51;9.85;;;2.50;;
58615;SDS011;44385;51.992;4.206;2023-04-25T05:49:18;4.60;;;1.85;;
58615;SDS011;44385;51.992;4.206;2023-04-25T05:51:44;7.53;;;2.05;;
58615;SDS011;44385;51.992;4.206;2023-04-25T05:54:10;6.70;;;2.38;;
58615;SDS011;44385;51.992;4.206;2023-04-25T05:56:38;7.18;;;2.17;;
58615;SDS011;44385;51.992;4.206;2023-04-25T05:59:05;8.93;;;2.35;;
58615;SDS011;44385;51.992;4.206;2023-04-25T06:01:32;7.20;;;2.40;;
58615;SDS011;44385;51.992;4.206;2023-04-25T06:03:58;12.60;;;2.75;;
58615;SDS011;44385;51.992;4.206;2023-04-25T06:06:25;9.65;;;2.70;;
58615;SDS011;44385;51.992;4.206;2023-04-25T06:08:51;10.20;;;2.25;;
58615;SDS011;44385;51.992;4.206;2023-04-25T06:11:18;7.25;;;2.40;;
58615;SDS011;44385;51.992;4.206;2023-04-25T06:13:46;9.38;;;2.20;;
58615;SDS011;44385;51.992;4.206;2023-04-25T06:16:13;7.43;;;2.33;;
58615;SDS011;44385;51.992;4.206;2023-04-25T06:18:39;15.52;;;2.22;;
58615;SDS011;44385;51.992;4.206;2023-04-25T06:21:06;6.60;;;2.50;;
58615;SDS011;44385;51.992;4.206;2023-04-25T06:23:32;8.35;;;2.15;;
58615;SDS011;44385;51.992;4.206;2023-04-25T06:25:58;7.20;;;2.65;;
58615;SDS011;44385;51.992;4.206;2023-04-25T06:28:25;6.45;;;2.17;;
58615;SDS011;44385;51.992;4.206;2023-04-25T06:30:53;7.63;;;2.25;;
58615;SDS011;44385;51.992;4.206;2023-04-25T06:33:19;6.97;;;2.08;;
58615;SDS011;44385;51.992;4.206;2023-04-25T06:35:46;6.38;;;2.22;;
58615;SDS011;44385;51.992;4.206;2023-04-25T06:38:13;7.40;;;1.73;;
58615;SDS011;44385;51.992;4.206;2023-04-25T06:40:40;8.52;;;3.17;;
58615;SDS011;44385;51.992;4.206;2023-04-25T06:43:06;7.32;;;1.77;;
58615;SDS011;44385;51.992;4.206;2023-04-25T06:45:33;5.35;;;1.50;;
58615;SDS011;44385;51.992;4.206;2023-04-25T06:48:00;7.80;;;2.80;;
58615;SDS011;44385;51.992;4.206;2023-04-25T06:50:27;7.63;;;1.60;;
58615;SDS011;44385;51.992;4.206;2023-04-25T06:52:54;6.55;;;1.80;;
58615;SDS011;44385;51.992;4.206;2023-04-25T06:55:20;3.72;;;1.50;;
58615;SDS011;44385;51.992;4.206;2023-04-25T06:57:47;7.13;;;1.52;;
58615;SDS011;44385;51.992;4.206;2023-04-25T07:00:14;9.30;;;1.70;;
58615;SDS011;44385;51.992;4.206;2023-04-25T07:02:40;5.10;;;1.70;;
58615;SDS011;44385;51.992;4.206;2023-04-25T07:05:09;9.48;;;1.92;;
58615;SDS011;44385;51.992;4.206;2023-04-25T07:07:36;11.60;;;2.65;;
58615;SDS011;44385;51.992;4.206;2023-04-25T07:10:03;6.20;;;1.98;;
58615;SDS011;44385;51.992;4.206;2023-04-25T07:12:30;6.53;;;2.03;;
58615;SDS011;44385;51.992;4.206;2023-04-25T07:14:56;7.05;;;1.75;;
58615;SDS011;44385;51.992;4.206;2023-04-25T07:17:23;9.95;;;2.13;;
58615;SDS011;44385;51.992;4.206;2023-04-25T07:19:49;7.28;;;2.10;;
58615;SDS011;44385;51.992;4.206;2023-04-25T07:22:17;6.05;;;1.80;;
58615;SDS011;44385;51.992;4.206;2023-04-25T07:24:44;9.10;;;2.10;;
58615;SDS011;44385;51.992;4.206;2023-04-25T07:27:13;7.38;;;1.90;;
58615;SDS011;44385;51.992;4.206;2023-04-25T07:29:39;7.35;;;1.75;;
58615;SDS011;44385;51.992;4.206;2023-04-25T07:32:07;7.75;;;1.58;;
58615;SDS011;44385;51.992;4.206;2023-04-25T07:34:33;7.35;;;1.75;;
58615;SDS011;44385;51.992;4.206;2023-04-25T07:37:02;6.70;;;1.65;;
58615;SDS011;44385;51.992;4.206;2023-04-25T07:39:33;6.88;;;2.25;;
58615;SDS011;44385;51.992;4.206;2023-04-25T07:42:00;4.65;;;2.00;;
58615;SDS011;44385;51.992;4.206;2023-04-25T07:44:27;5.50;;;1.48;;
58615;SDS011;44385;51.992;4.206;2023-04-25T07:46:56;6.60;;;1.52;;
58615;SDS011;44385;51.992;4.206;2023-04-25T07:49:22;8.02;;;1.40;;
58615;SDS011;44385;51.992;4.206;2023-04-25T07:51:49;3.85;;;1.13;;
58615;SDS011;44385;51.992;4.206;2023-04-25T07:54:16;3.45;;;1.33;;
58615;SDS011;44385;51.992;4.206;2023-04-25T07:56:44;7.40;;;1.73;;
58615;SDS011;44385;51.992;4.206;2023-04-25T07:59:10;6.88;;;1.70;;
58615;SDS011;44385;51.992;4.206;2023-04-25T08:01:37;7.15;;;1.70;;
58615;SDS011;44385;51.992;4.206;2023-04-25T08:04:03;5.50;;;1.33;;
58615;SDS011;44385;51.992;4.206;2023-04-25T08:06:30;7.10;;;1.55;;
58615;SDS011;44385;51.992;4.206;2023-04-25T08:08:57;6.82;;;1.55;;
58615;SDS011;44385;51.992;4.206;2023-04-25T08:11:23;9.63;;;1.77;;
58615;SDS011;44385;51.992;4.206;2023-04-25T08:13:51;8.63;;;1.50;;
58615;SDS011;44385;51.992;4.206;2023-04-25T08:16:18;5.95;;;1.40;;
58615;SDS011;44385;51.992;4.206;2023-04-25T08:18:44;5.93;;;1.60;;
58615;SDS011;44385;51.992;4.206;2023-04-25T08:21:10;4.90;;;1.70;;
58615;SDS011;44385;51.992;4.206;2023-04-25T08:23:37;7.60;;;1.42;;
58615;SDS011;44385;51.992;4.206;2023-04-25T08:26:04;5.05;;;1.58;;
58615;SDS011;44385;51.992;4.206;2023-04-25T08:28:30;5.85;;;1.25;;
58615;SDS011;44385;51.992;4.206;2023-04-25T08:30:59;4.97;;;1.20;;
58615;SDS011;44385;51.992;4.206;2023-04-25T08:33:25;3.40;;;1.33;;
58615;SDS011;44385;51.992;4.206;2023-04-25T08:35:52;6.47;;;1.70;;
58615;SDS011;44385;51.992;4.206;2023-04-25T08:38:18;5.95;;;1.45;;
58615;SDS011;44385;51.992;4.206;2023-04-25T08:40:45;7.25;;;1.50;;
58615;SDS011;44385;51.992;4.206;2023-04-25T08:43:15;9.80;;;2.25;;
58615;SDS011;44385;51.992;4.206;2023-04-25T08:45:44;5.65;;;1.58;;
58615;SDS011;44385;51.992;4.206;2023-04-25T08:48:13;6.88;;;1.58;;
58615;SDS011;44385;51.992;4.206;2023-04-25T08:50:43;7.32;;;1.40;;
58615;SDS011;44385;51.992;4.206;2023-04-25T08:53:12;4.53;;;0.93;;
58615;SDS011;44385;51.992;4.206;2023-04-25T08:55:43;4.43;;;0.90;;
58615;SDS011;44385;51.992;4.206;2023-04-25T08:58:09;20.77;;;4.25;;
58615;SDS011;44385;51.992;4.206;2023-04-25T09:00:37;16.13;;;2.38;;
58615;SDS011;44385;51.992;4.206;2023-04-25T09:03:03;5.72;;;1.58;;
58615;SDS011;44385;51.992;4.206;2023-04-25T09:05:31;8.52;;;2.10;;
58615;SDS011;44385;51.992;4.206;2023-04-25T09:07:58;13.93;;;2.05;;
58615;SDS011;44385;51.992;4.206;2023-04-25T09:10:26;6.65;;;1.73;;
58615;SDS011;44385;51.992;4.206;2023-04-25T09:13:02;4.63;;;1.58;;
58615;SDS011;44385;51.992;4.206;2023-04-25T09:15:30;7.70;;;1.80;;
58615;SDS011;44385;51.992;4.206;2023-04-25T09:17:56;4.32;;;1.42;;
58615;SDS011;44385;51.992;4.206;2023-04-25T09:20:23;8.13;;;1.80;;
58615;SDS011;44385;51.992;4.206;2023-04-25T09:23:02;7.13;;;1.63;;
58615;SDS011;44385;51.992;4.206;2023-04-25T09:25:29;8.40;;;2.17;;
58615;SDS011;44385;51.992;4.206;2023-04-25T09:28:00;5.25;;;1.40;;
58615;SDS011;44385;51.992;4.206;2023-04-25T09:32:56;5.35;;;1.38;;
58615;SDS011;44385;51.992;4.206;2023-04-25T09:35:23;7.75;;;1.83;;
58615;SDS011;44385;51.992;4.206;2023-04-25T09:37:49;6.15;;;1.33;;
58615;SDS011;44385;51.992;4.206;2023-04-25T09:40:18;4.10;;;1.13;;
58615;SDS011;44385;51.992;4.206;2023-04-25T09:42:44;3.83;;;1.25;;
58615;SDS011;44385;51.992;4.206;2023-04-25T09:45:12;4.47;;;1.20;;
58615;SDS011;44385;51.992;4.206;2023-04-25T09:47:38;2.63;;;1.15;;
58615;SDS011;44385;51.992;4.206;2023-04-25T09:50:05;3.20;;;1.23;;
58615;SDS011;44385;51.992;4.206;2023-04-25T09:52:40;6.97;;;1.80;;
58615;SDS011;44385;51.992;4.206;2023-04-25T09:55:07;4.90;;;1.60;;
58615;SDS011;44385;51.992;4.206;2023-04-25T09:57:35;5.13;;;1.60;;
58615;SDS011;44385;51.992;4.206;2023-04-25T10:00:05;5.75;;;2.13;;
58615;SDS011;44385;51.992;4.206;2023-04-25T10:02:34;3.47;;;1.33;;
58615;SDS011;44385;51.992;4.206;2023-04-25T10:05:02;5.00;;;1.60;;
58615;SDS011;44385;51.992;4.206;2023-04-25T10:07:31;5.80;;;1.20;;
58615;SDS011;44385;51.992;4.206;2023-04-25T10:10:00;4.18;;;1.63;;
58615;SDS011;44385;51.992;4.206;2023-04-25T10:12:28;5.72;;;1.48;;
58615;SDS011;44385;51.992;4.206;2023-04-25T10:14:57;5.75;;;1.55;;
58615;SDS011;44385;51.992;4.206;2023-04-25T10:17:24;4.87;;;1.50;;
58615;SDS011;44385;51.992;4.206;2023-04-25T10:19:52;7.32;;;1.63;;
58615;SDS011;44385;51.992;4.206;2023-04-25T10:22:20;4.80;;;1.48;;
58615;SDS011;44385;51.992;4.206;2023-04-25T10:24:49;7.47;;;1.75;;
58615;SDS011;44385;51.992;4.206;2023-04-25T10:27:16;3.72;;;1.20;;
58615;SDS011;44385;51.992;4.206;2023-04-25T10:29:43;5.47;;;1.80;;
58615;SDS011;44385;51.992;4.206;2023-04-25T10:32:11;7.22;;;1.83;;
58615;SDS011;44385;51.992;4.206;2023-04-25T10:34:38;6.45;;;1.65;;
58615;SDS011;44385;51.992;4.206;2023-04-25T10:37:05;8.18;;;1.83;;
58615;SDS011;44385;51.992;4.206;2023-04-25T10:39:32;5.15;;;1.98;;
58615;SDS011;44385;51.992;4.206;2023-04-25T10:41:58;4.32;;;1.30;;
58615;SDS011;44385;51.992;4.206;2023-04-25T10:44:26;5.25;;;1.52;;
58615;SDS011;44385;51.992;4.206;2023-04-25T10:46:54;7.78;;;1.73;;
58615;SDS011;44385;51.992;4.206;2023-04-25T10:49:32;3.53;;;1.30;;
58615;SDS011;44385;51.992;4.206;2023-04-25T10:52:17;5.22;;;1.60;;
58615;SDS011;44385;51.992;4.206;2023-04-25T10:54:47;5.53;;;1.50;;
58615;SDS011;44385;51.992;4.206;2023-04-25T10:57:31;4.40;;;1.30;;
58615;SDS011;44385;51.992;4.206;2023-04-25T10:59:59;5.75;;;1.75;;
58615;SDS011;44385;51.992;4.206;2023-04-25T11:02:26;5.18;;;1.42;;
58615;SDS011;44385;51.992;4.206;2023-04-25T11:04:54;6.10;;;1.50;;
58615;SDS011;44385;51.992;4.206;2023-04-25T11:07:23;6.50;;;1.50;;
58615;SDS011;44385;51.992;4.206;2023-04-25T11:09:52;7.45;;;2.25;;
58615;SDS011;44385;51.992;4.206;2023-04-25T11:12:19;7.15;;;2.22;;
58615;SDS011;44385;51.992;4.206;2023-04-25T11:14:46;5.57;;;1.70;;
58615;SDS011;44385;51.992;4.206;2023-04-25T11:17:12;7.32;;;1.65;;
58615;SDS011;44385;51.992;4.206;2023-04-25T11:19:38;4.30;;;1.10;;
58615;SDS011;44385;51.992;4.206;2023-04-25T11:22:06;4.93;;;1.70;;
58615;SDS011;44385;51.992;4.206;2023-04-25T11:24:33;4.75;;;1.42;;
58615;SDS011;44385;51.992;4.206;2023-04-25T11:27:01;6.72;;;1.83;;
58615;SDS011;44385;51.992;4.206;2023-04-25T11:29:29;6.20;;;1.52;;
58615;SDS011;44385;51.992;4.206;2023-04-25T11:31:56;5.18;;;2.10;;
58615;SDS011;44385;51.992;4.206;2023-04-25T11:34:22;9.60;;;1.65;;
58615;SDS011;44385;51.992;4.206;2023-04-25T11:36:50;5.40;;;1.35;;
58615;SDS011;44385;51.992;4.206;2023-04-25T11:39:18;5.75;;;1.63;;
58615;SDS011;44385;51.992;4.206;2023-04-25T11:41:45;3.95;;;1.35;;
58615;SDS011;44385;51.992;4.206;2023-04-25T11:44:12;6.22;;;1.85;;
58615;SDS011;44385;51.992;4.206;2023-04-25T11:49:07;8.02;;;1.90;;
58615;SDS011;44385;51.992;4.206;2023-04-25T11:51:37;4.60;;;1.88;;
58615;SDS011;44385;51.992;4.206;2023-04-25T11:54:04;6.43;;;1.83;;
58615;SDS011;44385;51.992;4.206;2023-04-25T11:56:32;4.75;;;1.88;;
58615;SDS011;44385;51.992;4.206;2023-04-25T11:58:59;6.20;;;1.60;;
58615;SDS011;44385;51.992;4.206;2023-04-25T12:01:27;7.18;;;1.65;;
58615;SDS011;44385;51.992;4.206;2023-04-25T12:03:53;7.22;;;1.88;;
58615;SDS011;44385;51.992;4.206;2023-04-25T12:06:20;4.50;;;1.80;;
58615;SDS011;44385;51.992;4.206;2023-04-25T12:08:59;5.55;;;1.60;;
58615;SDS011;44385;51.992;4.206;2023-04-25T12:11:26;4.15;;;1.38;;
58615;SDS011;44385;51.992;4.206;2023-04-25T12:13:54;5.93;;;1.52;;
58615;SDS011;44385;51.992;4.206;2023-04-25T12:16:20;4.15;;;1.33;;
58615;SDS011;44385;51.992;4.206;2023-04-25T12:18:46;7.97;;;1.60;;
58615;SDS011;44385;51.992;4.206;2023-04-25T12:21:13;3.72;;;1.42;;
58615;SDS011;44385;51.992;4.206;2023-04-25T12:23:39;6.85;;;1.80;;
58615;SDS011;44385;51.992;4.206;2023-04-25T12:26:06;5.03;;;1.10;;
58615;SDS011;44385;51.992;4.206;2023-04-25T12:28:33;3.28;;;1.20;;
58615;SDS011;44385;51.992;4.206;2023-04-25T12:31:01;5.72;;;1.73;;
58615;SDS011;44385;51.992;4.206;2023-04-25T12:33:29;4.88;;;1.70;;
58615;SDS011;44385;51.992;4.206;2023-04-25T12:35:56;3.45;;;1.40;;
58615;SDS011;44385;51.992;4.206;2023-04-25T12:38:23;4.40;;;1.85;;
58615;SDS011;44385;51.992;4.206;2023-04-25T12:40:50;7.57;;;1.58;;
58615;SDS011;44385;51.992;4.206;2023-04-25T12:43:17;5.95;;;1.88;;
58615;SDS011;44385;51.992;4.206;2023-04-25T12:45:43;6.40;;;1.85;;
58615;SDS011;44385;51.992;4.206;2023-04-25T12:48:11;4.03;;;1.45;;
58615;SDS011;44385;51.992;4.206;2023-04-25T12:50:37;6.82;;;1.67;;
58615;SDS011;44385;51.992;4.206;2023-04-25T12:53:04;9.15;;;2.30;;
58615;SDS011;44385;51.992;4.206;2023-04-25T12:55:30;3.72;;;1.70;;
58615;SDS011;44385;51.992;4.206;2023-04-25T12:57:57;6.28;;;1.50;;
58615;SDS011;44385;51.992;4.206;2023-04-25T13:00:23;2.75;;;1.25;;
58615;SDS011;44385;51.992;4.206;2023-04-25T13:02:51;5.03;;;1.58;;
58615;SDS011;44385;51.992;4.206;2023-04-25T13:05:19;5.40;;;1.40;;
58615;SDS011;44385;51.992;4.206;2023-04-25T13:07:45;5.15;;;1.70;;
58615;SDS011;44385;51.992;4.206;2023-04-25T13:10:12;5.25;;;2.15;;
58615;SDS011;44385;51.992;4.206;2023-04-25T13:12:38;3.97;;;1.27;;
58615;SDS011;44385;51.992;4.206;2023-04-25T13:15:05;3.53;;;1.30;;
58615;SDS011;44385;51.992;4.206;2023-04-25T13:17:34;6.30;;;2.05;;
58615;SDS011;44385;51.992;4.206;2023-04-25T13:20:00;3.50;;;1.42;;
58615;SDS011;44385;51.992;4.206;2023-04-25T13:22:31;5.20;;;1.35;;
58615;SDS011;44385;51.992;4.206;2023-04-25T13:24:57;5.07;;;1.50;;
58615;SDS011;44385;51.992;4.206;2023-04-25T13:27:24;4.57;;;1.33;;
58615;SDS011;44385;51.992;4.206;2023-04-25T13:29:51;9.23;;;1.80;;
58615;SDS011;44385;51.992;4.206;2023-04-25T13:32:17;6.05;;;1.80;;
58615;SDS011;44385;51.992;4.206;2023-04-25T13:34:44;9.27;;;1.77;;
58615;SDS011;44385;51.992;4.206;2023-04-25T13:37:10;6.47;;;1.83;;
58615;SDS011;44385;51.992;4.206;2023-04-25T13:39:38;7.25;;;1.80;;
58615;SDS011;44385;51.992;4.206;2023-04-25T13:42:04;5.43;;;2.30;;
58615;SDS011;44385;51.992;4.206;2023-04-25T13:44:31;5.75;;;1.55;;
58615;SDS011;44385;51.992;4.206;2023-04-25T13:46:57;3.22;;;1.48;;
58615;SDS011;44385;51.992;4.206;2023-04-25T13:49:25;9.13;;;2.05;;
58615;SDS011;44385;51.992;4.206;2023-04-25T13:51:52;4.47;;;1.50;;
58615;SDS011;44385;51.992;4.206;2023-04-25T13:54:18;4.05;;;1.60;;
58615;SDS011;44385;51.992;4.206;2023-04-25T13:56:46;4.80;;;1.63;;
58615;SDS011;44385;51.992;4.206;2023-04-25T13:59:13;7.20;;;1.70;;
58615;SDS011;44385;51.992;4.206;2023-04-25T14:01:43;4.50;;;1.20;;
58615;SDS011;44385;51.992;4.206;2023-04-25T14:04:10;5.95;;;1.50;;
58615;SDS011;44385;51.992;4.206;2023-04-25T14:06:37;4.00;;;1.50;;
58615;SDS011;44385;51.992;4.206;2023-04-25T14:09:03;4.72;;;1.70;;
58615;SDS011;44385;51.992;4.206;2023-04-25T14:11:31;5.20;;;1.83;;
58615;SDS011;44385;51.992;4.206;2023-04-25T14:13:59;4.20;;;2.15;;
58615;SDS011;44385;51.992;4.206;2023-04-25T14:16:26;5.90;;;1.63;;
58615;SDS011;44385;51.992;4.206;2023-04-25T14:18:52;6.28;;;1.33;;
58615;SDS011;44385;51.992;4.206;2023-04-25T14:21:19;7.03;;;1.67;;
58615;SDS011;44385;51.992;4.206;2023-04-25T14:23:46;6.07;;;1.48;;
58615;SDS011;44385;51.992;4.206;2023-04-25T14:26:12;8.55;;;1.95;;
58615;SDS011;44385;51.992;4.206;2023-04-25T14:28:39;5.15;;;1.55;;
58615;SDS011;44385;51.992;4.206;2023-04-25T14:31:07;5.20;;;2.10;;
58615;SDS011;44385;51.992;4.206;2023-04-25T14:33:33;7.78;;;1.65;;
58615;SDS011;44385;51.992;4.206;2023-04-25T14:36:00;5.82;;;1.85;;
58615;SDS011;44385;51.992;4.206;2023-04-25T14:40:58;3.33;;;1.67;;
58615;SDS011;44385;51.992;4.206;2023-04-25T14:43:24;6.28;;;1.73;;
58615;SDS011;44385;51.992;4.206;2023-04-25T14:45:51;5.32;;;1.95;;
58615;SDS011;44385;51.992;4.206;2023-04-25T14:48:19;5.75;;;1.63;;
58615;SDS011;44385;51.992;4.206;2023-04-25T14:50:45;4.95;;;1.58;;
58615;SDS011;44385;51.992;4.206;2023-04-25T14:53:12;7.10;;;1.80;;